sensor_id;sensor_type;location;lat;lon;timestamp;pressure;altitude;pressure_sealevel;temperature;humidity
16664;BME280;8445;51.270;9.434;2022-11-20T00:00:56;99149.97;;;-6.78;78.10
16664;BME280;8445;51.270;9.434;2022-11-20T00:03:22;99150.88;;;-6.80;78.62
16664;BME280;8445;51.270;9.434;2022-11-20T00:05:47;99138.06;;;-6.87;78.05
16664;BME280;8445;51.270;9.434;2022-11-20T00:08:14;99148.34;;;-6.87;78.42
16664;BME280;8445;51.270;9.434;2022-11-20T00:10:43;99138.09;;;-6.91;77.80
16664;BME280;8445;51.270;9.434;2022-11-20T00:13:10;99137.28;;;-6.96;78.03
16664;BME280;8445;51.270;9.434;2022-11-20T00:15:37;99130.44;;;-7.01;77.90
16664;BME280;8445;51.270;9.434;2022-11-20T00:18:02;99136.44;;;-6.98;78.15
16664;BME280;8445;51.270;9.434;2022-11-20T00:20:28;99140.72;;;-6.96;78.70
16664;BME280;8445;51.270;9.434;2022-11-20T00:22:53;99133.88;;;-6.97;78.28
16664;BME280;8445;51.270;9.434;2022-11-20T00:25:19;99141.56;;;-6.97;78.14
16664;BME280;8445;51.270;9.434;2022-11-20T00:27:44;99135.53;;;-6.94;78.43
16664;BME280;8445;51.270;9.434;2022-11-20T00:30:10;99131.25;;;-6.95;78.36
16664;BME280;8445;51.270;9.434;2022-11-20T00:32:35;99133.84;;;-6.95;78.33
16664;BME280;8445;51.270;9.434;2022-11-20T00:35:01;99124.38;;;-6.92;78.36
16664;BME280;8445;51.270;9.434;2022-11-20T00:37:26;99128.53;;;-6.77;79.18
16664;BME280;8445;51.270;9.434;2022-11-20T00:39:52;99125.75;;;-6.55;79.76
16664;BME280;8445;51.270;9.434;2022-11-20T00:42:18;99126.50;;;-6.47;79.20
16664;BME280;8445;51.270;9.434;2022-11-20T00:44:46;99120.47;;;-6.44;78.58
16664;BME280;8445;51.270;9.434;2022-11-20T00:47:12;99121.31;;;-6.44;79.39
16664;BME280;8445;51.270;9.434;2022-11-20T00:49:37;99123.91;;;-6.42;78.64
16664;BME280;8445;51.270;9.434;2022-11-20T00:52:03;99119.69;;;-6.48;78.60
16664;BME280;8445;51.270;9.434;2022-11-20T00:54:28;99123.16;;;-6.52;78.78
16664;BME280;8445;51.270;9.434;2022-11-20T00:56:54;99119.75;;;-6.54;78.33
16664;BME280;8445;51.270;9.434;2022-11-20T00:59:19;99117.22;;;-6.60;78.30
16664;BME280;8445;51.270;9.434;2022-11-20T01:01:45;99125.84;;;-6.66;77.91
16664;BME280;8445;51.270;9.434;2022-11-20T01:04:10;99124.19;;;-6.72;78.00
16664;BME280;8445;51.270;9.434;2022-11-20T01:06:37;99122.47;;;-6.70;77.93
16664;BME280;8445;51.270;9.434;2022-11-20T01:09:11;99119.88;;;-6.70;78.49
16664;BME280;8445;51.270;9.434;2022-11-20T01:11:40;99113.00;;;-6.69;78.33
16664;BME280;8445;51.270;9.434;2022-11-20T01:14:10;99110.50;;;-6.75;78.21
16664;BME280;8445;51.270;9.434;2022-11-20T01:16:38;99114.03;;;-6.82;78.10
16664;BME280;8445;51.270;9.434;2022-11-20T01:19:06;99112.38;;;-6.90;77.86
16664;BME280;8445;51.270;9.434;2022-11-20T01:21:34;99102.97;;;-6.95;77.76
16664;BME280;8445;51.270;9.434;2022-11-20T01:24:01;99108.97;;;-6.96;78.13
16664;BME280;8445;51.270;9.434;2022-11-20T01:26:29;99107.31;;;-7.01;78.56
16664;BME280;8445;51.270;9.434;2022-11-20T01:28:55;99110.69;;;-6.94;78.70
16664;BME280;8445;51.270;9.434;2022-11-20T01:31:25;99115.84;;;-6.97;78.03
16664;BME280;8445;51.270;9.434;2022-11-20T01:33:53;99117.53;;;-6.93;78.87
16664;BME280;8445;51.270;9.434;2022-11-20T01:36:21;99108.84;;;-6.81;79.19
16664;BME280;8445;51.270;9.434;2022-11-20T01:38:47;99103.63;;;-6.72;79.92
16664;BME280;8445;51.270;9.434;2022-11-20T01:41:14;99091.56;;;-6.68;78.69
16664;BME280;8445;51.270;9.434;2022-11-20T01:44:00;99085.53;;;-6.67;78.84
16664;BME280;8445;51.270;9.434;2022-11-20T01:46:25;99090.75;;;-6.72;78.49
16664;BME280;8445;51.270;9.434;2022-11-20T01:51:47;99084.75;;;-6.72;79.09
16664;BME280;8445;51.270;9.434;2022-11-20T01:54:18;99070.22;;;-6.78;78.39
16664;BME280;8445;51.270;9.434;2022-11-20T01:56:46;99087.44;;;-6.83;78.55
16664;BME280;8445;51.270;9.434;2022-11-20T01:59:16;99092.56;;;-6.81;78.75
16664;BME280;8445;51.270;9.434;2022-11-20T02:01:43;99095.16;;;-6.83;78.84
16664;BME280;8445;51.270;9.434;2022-11-20T02:04:09;99096.00;;;-6.81;78.31
16664;BME280;8445;51.270;9.434;2022-11-20T02:06:48;99090.88;;;-6.84;78.52
16664;BME280;8445;51.270;9.434;2022-11-20T02:09:15;99089.19;;;-6.88;78.30
16664;BME280;8445;51.270;9.434;2022-11-20T02:11:42;99086.66;;;-6.90;78.59
16664;BME280;8445;51.270;9.434;2022-11-20T02:14:09;99096.09;;;-6.92;78.38
16664;BME280;8445;51.270;9.434;2022-11-20T02:16:44;99092.72;;;-6.98;78.59
16664;BME280;8445;51.270;9.434;2022-11-20T02:19:28;99085.03;;;-7.00;78.65
16664;BME280;8445;51.270;9.434;2022-11-20T02:22:05;99085.91;;;-7.06;78.36
16664;BME280;8445;51.270;9.434;2022-11-20T02:24:34;99090.19;;;-7.03;79.01
16664;BME280;8445;51.270;9.434;2022-11-20T02:27:06;99082.38;;;-6.92;80.37
16664;BME280;8445;51.270;9.434;2022-11-20T02:29:37;99075.41;;;-6.81;79.61
16664;BME280;8445;51.270;9.434;2022-11-20T02:32:03;99077.09;;;-6.77;79.35
16664;BME280;8445;51.270;9.434;2022-11-20T02:34:29;99070.22;;;-6.78;79.35
16664;BME280;8445;51.270;9.434;2022-11-20T02:36:56;99073.66;;;-6.76;78.78
16664;BME280;8445;51.270;9.434;2022-11-20T02:39:24;99062.63;;;-6.86;78.63
16664;BME280;8445;51.270;9.434;2022-11-20T02:41:52;99054.06;;;-6.88;78.74
16664;BME280;8445;51.270;9.434;2022-11-20T02:44:18;99061.75;;;-6.86;79.12
16664;BME280;8445;51.270;9.434;2022-11-20T02:46:43;99066.09;;;-6.90;78.70
16664;BME280;8445;51.270;9.434;2022-11-20T02:49:09;99068.72;;;-7.01;78.67
16664;BME280;8445;51.270;9.434;2022-11-20T02:51:34;99069.69;;;-7.09;78.24
16664;BME280;8445;51.270;9.434;2022-11-20T02:54:00;99063.75;;;-7.16;78.45
16664;BME280;8445;51.270;9.434;2022-11-20T02:56:25;99062.06;;;-7.17;78.83
16664;BME280;8445;51.270;9.434;2022-11-20T02:58:51;99066.31;;;-7.15;78.77
16664;BME280;8445;51.270;9.434;2022-11-20T03:01:17;99063.75;;;-7.16;78.61
16664;BME280;8445;51.270;9.434;2022-11-20T03:03:43;99067.22;;;-7.20;78.83
16664;BME280;8445;51.270;9.434;2022-11-20T03:06:10;99061.22;;;-7.21;78.78
16664;BME280;8445;51.270;9.434;2022-11-20T03:08:36;99065.44;;;-7.12;79.42
16664;BME280;8445;51.270;9.434;2022-11-20T03:11:04;99063.69;;;-7.07;79.43
16664;BME280;8445;51.270;9.434;2022-11-20T03:13:31;99070.50;;;-7.06;79.03
16664;BME280;8445;51.270;9.434;2022-11-20T03:16:13;99069.63;;;-7.05;79.32
16664;BME280;8445;51.270;9.434;2022-11-20T03:18:41;99079.84;;;-6.98;79.31
16664;BME280;8445;51.270;9.434;2022-11-20T03:21:09;99065.22;;;-6.89;79.42
16664;BME280;8445;51.270;9.434;2022-11-20T03:23:36;99078.84;;;-6.82;78.84
16664;BME280;8445;51.270;9.434;2022-11-20T03:28:36;99058.38;;;-6.91;78.51
16664;BME280;8445;51.270;9.434;2022-11-20T03:31:22;99066.97;;;-6.94;78.77
16664;BME280;8445;51.270;9.434;2022-11-20T03:33:48;99069.53;;;-6.94;78.33
16664;BME280;8445;51.270;9.434;2022-11-20T03:36:16;99065.25;;;-6.93;78.70
16664;BME280;8445;51.270;9.434;2022-11-20T03:38:42;99073.72;;;-6.85;78.88
16664;BME280;8445;51.270;9.434;2022-11-20T03:41:09;99056.56;;;-6.81;79.16
16664;BME280;8445;51.270;9.434;2022-11-20T03:43:36;99065.06;;;-6.75;79.11
16664;BME280;8445;51.270;9.434;2022-11-20T03:46:02;99056.44;;;-6.71;79.09
16664;BME280;8445;51.270;9.434;2022-11-20T03:48:28;99048.72;;;-6.71;79.13
16664;BME280;8445;51.270;9.434;2022-11-20T03:51:24;99047.81;;;-6.66;79.17
16664;BME280;8445;51.270;9.434;2022-11-20T03:53:52;99044.34;;;-6.64;79.36
16664;BME280;8445;51.270;9.434;2022-11-20T03:56:20;99034.03;;;-6.59;79.32
16664;BME280;8445;51.270;9.434;2022-11-20T03:58:47;99034.81;;;-6.56;79.30
16664;BME280;8445;51.270;9.434;2022-11-20T04:01:14;99030.38;;;-6.43;79.33
16664;BME280;8445;51.270;9.434;2022-11-20T04:03:42;99023.38;;;-6.31;79.43
16664;BME280;8445;51.270;9.434;2022-11-20T04:06:16;99029.19;;;-6.17;79.80
16664;BME280;8445;51.270;9.434;2022-11-20T04:08:42;99029.91;;;-6.05;80.13
16664;BME280;8445;51.270;9.434;2022-11-20T04:11:19;99035.66;;;-5.89;80.00
16664;BME280;8445;51.270;9.434;2022-11-20T04:13:51;99039.72;;;-5.74;80.13
16664;BME280;8445;51.270;9.434;2022-11-20T04:16:18;99036.97;;;-5.62;79.98
16664;BME280;8445;51.270;9.434;2022-11-20T04:18:44;99035.91;;;-5.48;80.12
16664;BME280;8445;51.270;9.434;2022-11-20T04:21:10;99036.59;;;-5.39;80.40
16664;BME280;8445;51.270;9.434;2022-11-20T04:23:36;99033.81;;;-5.28;80.35
16664;BME280;8445;51.270;9.434;2022-11-20T04:26:07;99029.34;;;-5.16;80.37
16664;BME280;8445;51.270;9.434;2022-11-20T04:28:33;99034.34;;;-5.07;80.27
16664;BME280;8445;51.270;9.434;2022-11-20T04:31:07;99023.03;;;-5.00;80.49
16664;BME280;8445;51.270;9.434;2022-11-20T04:33:33;99025.56;;;-4.97;80.20
16664;BME280;8445;51.270;9.434;2022-11-20T04:36:04;99023.75;;;-4.93;80.25
16664;BME280;8445;51.270;9.434;2022-11-20T04:38:31;99026.31;;;-4.92;79.79
16664;BME280;8445;51.270;9.434;2022-11-20T04:41:01;99027.19;;;-4.93;80.13
16664;BME280;8445;51.270;9.434;2022-11-20T04:43:27;99021.22;;;-4.95;80.46
16664;BME280;8445;51.270;9.434;2022-11-20T04:45:53;99023.84;;;-4.98;80.13
16664;BME280;8445;51.270;9.434;2022-11-20T04:48:19;99024.84;;;-5.05;80.14
16664;BME280;8445;51.270;9.434;2022-11-20T04:50:45;99028.47;;;-5.15;79.94
16664;BME280;8445;51.270;9.434;2022-11-20T04:53:10;99026.03;;;-5.25;80.25
16664;BME280;8445;51.270;9.434;2022-11-20T04:55:35;99018.53;;;-5.37;79.91
16664;BME280;8445;51.270;9.434;2022-11-20T04:58:01;99027.25;;;-5.44;79.81
16664;BME280;8445;51.270;9.434;2022-11-20T05:00:26;99025.69;;;-5.55;79.51
16664;BME280;8445;51.270;9.434;2022-11-20T05:02:52;99013.72;;;-5.59;80.59
16664;BME280;8445;51.270;9.434;2022-11-20T05:05:19;99006.88;;;-5.60;80.31
16664;BME280;8445;51.270;9.434;2022-11-20T05:07:47;99006.06;;;-5.63;80.35
16664;BME280;8445;51.270;9.434;2022-11-20T05:10:16;98994.94;;;-5.67;79.82
16664;BME280;8445;51.270;9.434;2022-11-20T05:12:43;98997.56;;;-5.70;80.59
16664;BME280;8445;51.270;9.434;2022-11-20T05:15:09;99001.03;;;-5.71;80.15
16664;BME280;8445;51.270;9.434;2022-11-20T05:17:35;99002.81;;;-5.76;80.43
16664;BME280;8445;51.270;9.434;2022-11-20T05:20:00;99008.88;;;-5.81;80.35
16664;BME280;8445;51.270;9.434;2022-11-20T05:22:27;99014.13;;;-5.87;79.52
16664;BME280;8445;51.270;9.434;2022-11-20T05:24:53;99006.34;;;-5.84;80.13
16664;BME280;8445;51.270;9.434;2022-11-20T05:27:20;99002.78;;;-5.73;80.29
16664;BME280;8445;51.270;9.434;2022-11-20T05:29:45;98999.97;;;-5.58;81.00
16664;BME280;8445;51.270;9.434;2022-11-20T05:32:10;99004.91;;;-5.45;80.31
16664;BME280;8445;51.270;9.434;2022-11-20T05:34:36;99001.34;;;-5.38;80.67
16664;BME280;8445;51.270;9.434;2022-11-20T05:37:02;99009.88;;;-5.33;80.19
16664;BME280;8445;51.270;9.434;2022-11-20T05:39:28;99011.44;;;-5.26;80.00
16664;BME280;8445;51.270;9.434;2022-11-20T05:41:53;99016.53;;;-5.23;80.15
16664;BME280;8445;51.270;9.434;2022-11-20T05:44:39;99021.69;;;-5.23;80.04
16664;BME280;8445;51.270;9.434;2022-11-20T05:47:05;99012.22;;;-5.21;80.05
16664;BME280;8445;51.270;9.434;2022-11-20T05:49:31;99014.69;;;-5.14;80.17
16664;BME280;8445;51.270;9.434;2022-11-20T05:51:56;99002.59;;;-5.11;80.30
16664;BME280;8445;51.270;9.434;2022-11-20T05:54:22;99010.13;;;-5.00;80.41
16664;BME280;8445;51.270;9.434;2022-11-20T05:56:47;99006.63;;;-4.96;80.34
16664;BME280;8445;51.270;9.434;2022-11-20T05:59:13;99016.84;;;-4.91;80.40
16664;BME280;8445;51.270;9.434;2022-11-20T06:01:38;99010.84;;;-4.92;80.62
16664;BME280;8445;51.270;9.434;2022-11-20T06:04:04;99005.63;;;-4.90;80.71
16664;BME280;8445;51.270;9.434;2022-11-20T06:06:29;99003.06;;;-4.90;80.77
16664;BME280;8445;51.270;9.434;2022-11-20T06:08:55;99009.09;;;-4.89;80.78
16664;BME280;8445;51.270;9.434;2022-11-20T06:11:21;99008.16;;;-4.87;81.10
16664;BME280;8445;51.270;9.434;2022-11-20T06:13:46;98995.25;;;-4.87;81.18
16664;BME280;8445;51.270;9.434;2022-11-20T06:16:16;98994.31;;;-4.83;81.07
16664;BME280;8445;51.270;9.434;2022-11-20T06:18:43;99002.00;;;-4.78;81.08
16664;BME280;8445;51.270;9.434;2022-11-20T06:21:19;98998.53;;;-4.77;81.05
16664;BME280;8445;51.270;9.434;2022-11-20T06:23:45;99000.13;;;-4.71;81.55
16664;BME280;8445;51.270;9.434;2022-11-20T06:26:16;99006.13;;;-4.71;81.38
16664;BME280;8445;51.270;9.434;2022-11-20T06:28:42;99006.06;;;-4.68;80.98
16664;BME280;8445;51.270;9.434;2022-11-20T06:31:10;98996.56;;;-4.66;81.15
16664;BME280;8445;51.270;9.434;2022-11-20T06:33:36;98989.66;;;-4.64;81.51
16664;BME280;8445;51.270;9.434;2022-11-20T06:36:03;98993.97;;;-4.64;81.25
16664;BME280;8445;51.270;9.434;2022-11-20T06:38:29;98991.47;;;-4.69;81.35
16664;BME280;8445;51.270;9.434;2022-11-20T06:40:55;98992.50;;;-4.78;80.61
16664;BME280;8445;51.270;9.434;2022-11-20T06:43:21;99001.13;;;-4.79;80.94
16664;BME280;8445;51.270;9.434;2022-11-20T06:45:52;98989.91;;;-4.76;81.45
16664;BME280;8445;51.270;9.434;2022-11-20T06:48:17;98989.16;;;-4.81;81.24
16664;BME280;8445;51.270;9.434;2022-11-20T06:50:43;98993.59;;;-4.89;81.11
16664;BME280;8445;51.270;9.434;2022-11-20T06:53:08;99000.63;;;-4.98;80.95
16664;BME280;8445;51.270;9.434;2022-11-20T06:55:34;98996.47;;;-5.05;80.74
16664;BME280;8445;51.270;9.434;2022-11-20T06:57:59;99006.06;;;-5.12;80.85
16664;BME280;8445;51.270;9.434;2022-11-20T07:00:25;99000.97;;;-5.16;80.95
16664;BME280;8445;51.270;9.434;2022-11-20T07:02:50;99008.69;;;-5.16;81.05
16664;BME280;8445;51.270;9.434;2022-11-20T07:05:16;99002.59;;;-5.11;81.14
16664;BME280;8445;51.270;9.434;2022-11-20T07:07:42;99005.09;;;-5.06;81.42
16664;BME280;8445;51.270;9.434;2022-11-20T07:10:08;98996.50;;;-5.07;81.15
16664;BME280;8445;51.270;9.434;2022-11-20T07:12:33;98991.31;;;-5.05;81.60
16664;BME280;8445;51.270;9.434;2022-11-20T07:14:59;98990.19;;;-4.92;81.86
16664;BME280;8445;51.270;9.434;2022-11-20T07:17:24;98989.03;;;-4.75;82.24
16664;BME280;8445;51.270;9.434;2022-11-20T07:19:50;98988.75;;;-4.63;82.34
16664;BME280;8445;51.270;9.434;2022-11-20T07:22:15;98999.00;;;-4.58;81.98
16664;BME280;8445;51.270;9.434;2022-11-20T07:24:40;98991.31;;;-4.61;82.28
16664;BME280;8445;51.270;9.434;2022-11-20T07:27:06;98998.88;;;-4.52;82.64
16664;BME280;8445;51.270;9.434;2022-11-20T07:29:31;99004.63;;;-4.39;82.69
16664;BME280;8445;51.270;9.434;2022-11-20T07:31:57;99003.69;;;-4.35;82.71
16664;BME280;8445;51.270;9.434;2022-11-20T07:34:22;99006.16;;;-4.28;82.38
16664;BME280;8445;51.270;9.434;2022-11-20T07:36:48;99010.38;;;-4.24;82.92
16664;BME280;8445;51.270;9.434;2022-11-20T07:39:13;99009.38;;;-4.19;82.25
16664;BME280;8445;51.270;9.434;2022-11-20T07:41:39;99004.31;;;-4.23;82.11
16664;BME280;8445;51.270;9.434;2022-11-20T07:44:04;99018.00;;;-4.18;82.51
16664;BME280;8445;51.270;9.434;2022-11-20T07:46:30;99017.91;;;-4.15;82.13
16664;BME280;8445;51.270;9.434;2022-11-20T07:48:55;99018.13;;;-4.24;81.95
16664;BME280;8445;51.270;9.434;2022-11-20T07:51:21;99018.38;;;-4.37;81.75
16664;BME280;8445;51.270;9.434;2022-11-20T07:53:46;99009.94;;;-4.45;81.32
16664;BME280;8445;51.270;9.434;2022-11-20T07:56:12;99022.13;;;-4.53;81.21
16664;BME280;8445;51.270;9.434;2022-11-20T07:58:39;99023.13;;;-4.59;81.62
16664;BME280;8445;51.270;9.434;2022-11-20T08:01:08;99022.25;;;-4.59;81.55
16664;BME280;8445;51.270;9.434;2022-11-20T08:03:33;99027.53;;;-4.66;81.16
16664;BME280;8445;51.270;9.434;2022-11-20T08:06:00;99022.47;;;-4.70;81.17
16664;BME280;8445;51.270;9.434;2022-11-20T08:08:29;99018.31;;;-4.78;81.20
16664;BME280;8445;51.270;9.434;2022-11-20T08:10:57;99026.16;;;-4.82;81.56
16664;BME280;8445;51.270;9.434;2022-11-20T08:13:43;99022.63;;;-4.78;82.02
16664;BME280;8445;51.270;9.434;2022-11-20T08:16:27;99022.53;;;-4.72;81.91
16664;BME280;8445;51.270;9.434;2022-11-20T08:18:53;99021.56;;;-4.68;82.09
16664;BME280;8445;51.270;9.434;2022-11-20T08:21:18;99021.50;;;-4.65;81.50
16664;BME280;8445;51.270;9.434;2022-11-20T08:23:44;99019.69;;;-4.59;81.92
16664;BME280;8445;51.270;9.434;2022-11-20T08:26:09;99029.81;;;-4.50;82.50
16664;BME280;8445;51.270;9.434;2022-11-20T08:28:35;99027.88;;;-4.40;81.89
16664;BME280;8445;51.270;9.434;2022-11-20T08:31:01;99039.97;;;-4.41;82.02
16664;BME280;8445;51.270;9.434;2022-11-20T08:33:28;99028.72;;;-4.38;81.88
16664;BME280;8445;51.270;9.434;2022-11-20T08:36:06;99025.22;;;-4.36;82.18
16664;BME280;8445;51.270;9.434;2022-11-20T08:38:32;99021.78;;;-4.35;81.69
16664;BME280;8445;51.270;9.434;2022-11-20T08:40:59;99022.72;;;-4.39;81.35
16664;BME280;8445;51.270;9.434;2022-11-20T08:43:43;99025.34;;;-4.42;81.80
16664;BME280;8445;51.270;9.434;2022-11-20T08:46:08;99020.25;;;-4.45;81.54
16664;BME280;8445;51.270;9.434;2022-11-20T08:48:34;99037.44;;;-4.44;82.49
16664;BME280;8445;51.270;9.434;2022-11-20T08:50:59;99033.63;;;-4.26;82.84
16664;BME280;8445;51.270;9.434;2022-11-20T08:53:25;99035.84;;;-4.09;83.47
16664;BME280;8445;51.270;9.434;2022-11-20T08:55:51;99034.56;;;-3.89;83.93
16664;BME280;8445;51.270;9.434;2022-11-20T08:58:17;99033.13;;;-3.63;83.82
16664;BME280;8445;51.270;9.434;2022-11-20T09:00:42;99039.31;;;-3.34;84.34
16664;BME280;8445;51.270;9.434;2022-11-20T09:03:08;99040.44;;;-3.10;84.32
16664;BME280;8445;51.270;9.434;2022-11-20T09:05:34;99034.72;;;-2.90;84.60
16664;BME280;8445;51.270;9.434;2022-11-20T09:07:59;99030.91;;;-2.75;84.46
16664;BME280;8445;51.270;9.434;2022-11-20T09:10:28;99042.66;;;-2.63;83.99
16664;BME280;8445;51.270;9.434;2022-11-20T09:12:54;99036.44;;;-2.56;84.41
16664;BME280;8445;51.270;9.434;2022-11-20T09:15:24;99037.94;;;-2.48;84.15
16664;BME280;8445;51.270;9.434;2022-11-20T09:17:54;99042.00;;;-2.38;84.32
16664;BME280;8445;51.270;9.434;2022-11-20T09:20:20;99041.88;;;-2.35;83.65
16664;BME280;8445;51.270;9.434;2022-11-20T09:22:45;99039.78;;;-2.22;83.62
16664;BME280;8445;51.270;9.434;2022-11-20T09:25:11;99041.16;;;-2.10;83.79
16664;BME280;8445;51.270;9.434;2022-11-20T09:27:36;99046.09;;;-2.01;84.28
16664;BME280;8445;51.270;9.434;2022-11-20T09:30:03;99050.56;;;-1.77;85.15
16664;BME280;8445;51.270;9.434;2022-11-20T09:32:29;99033.47;;;-1.56;85.12
16664;BME280;8445;51.270;9.434;2022-11-20T09:34:54;99036.19;;;-1.32;85.51
16664;BME280;8445;51.270;9.434;2022-11-20T09:37:20;99043.16;;;-1.08;85.87
16664;BME280;8445;51.270;9.434;2022-11-20T09:39:45;99041.94;;;-0.97;85.28
16664;BME280;8445;51.270;9.434;2022-11-20T09:45:16;99039.81;;;-0.86;85.05
16664;BME280;8445;51.270;9.434;2022-11-20T09:50:45;99049.91;;;-1.02;85.12
16664;BME280;8445;51.270;9.434;2022-11-20T09:56:08;99038.63;;;-1.01;86.28
16664;BME280;8445;51.270;9.434;2022-11-20T09:58:40;99031.34;;;-0.91;86.22
16664;BME280;8445;51.270;9.434;2022-11-20T10:01:40;99031.03;;;-0.82;86.30
16664;BME280;8445;51.270;9.434;2022-11-20T10:04:15;99040.94;;;-0.93;85.76
16664;BME280;8445;51.270;9.434;2022-11-20T10:09:32;99031.81;;;-1.30;85.59
16664;BME280;8445;51.270;9.434;2022-11-20T10:20:21;99020.72;;;-1.36;86.74
16664;BME280;8445;51.270;9.434;2022-11-20T10:25:39;99017.06;;;-1.30;86.35
16664;BME280;8445;51.270;9.434;2022-11-20T10:28:23;99020.78;;;-1.12;87.51
16664;BME280;8445;51.270;9.434;2022-11-20T10:31:21;99020.22;;;-0.69;89.18
16664;BME280;8445;51.270;9.434;2022-11-20T10:33:46;99023.59;;;-0.43;88.04
16664;BME280;8445;51.270;9.434;2022-11-20T10:36:41;99009.81;;;-0.69;85.41
16664;BME280;8445;51.270;9.434;2022-11-20T10:39:34;99005.50;;;-0.94;84.71
16664;BME280;8445;51.270;9.434;2022-11-20T10:42:00;99008.38;;;-1.02;85.12
16664;BME280;8445;51.270;9.434;2022-11-20T10:44:28;99008.50;;;-1.07;85.04
16664;BME280;8445;51.270;9.434;2022-11-20T10:47:15;98998.09;;;-1.05;85.48
16664;BME280;8445;51.270;9.434;2022-11-20T10:49:42;98991.19;;;-0.81;86.66
16664;BME280;8445;51.270;9.434;2022-11-20T10:52:39;98988.81;;;-0.63;86.11
16664;BME280;8445;51.270;9.434;2022-11-20T10:58:11;98989.28;;;0.17;87.44
16664;BME280;8445;51.270;9.434;2022-11-20T11:00:38;98983.13;;;0.41;88.12
16664;BME280;8445;51.270;9.434;2022-11-20T11:03:26;98970.03;;;0.43;86.94
16664;BME280;8445;51.270;9.434;2022-11-20T11:06:54;98974.97;;;0.49;86.10
16664;BME280;8445;51.270;9.434;2022-11-20T11:09:04;98972.22;;;0.54;84.92
16664;BME280;8445;51.270;9.434;2022-11-20T11:11:38;98970.16;;;0.40;84.64
16664;BME280;8445;51.270;9.434;2022-11-20T11:14:07;98968.13;;;0.26;85.85
16664;BME280;8445;51.270;9.434;2022-11-20T11:16:33;98964.84;;;0.21;86.36
16664;BME280;8445;51.270;9.434;2022-11-20T11:19:14;98966.53;;;0.22;86.27
16664;BME280;8445;51.270;9.434;2022-11-20T11:21:46;98960.31;;;0.26;87.15
16664;BME280;8445;51.270;9.434;2022-11-20T11:24:24;98956.88;;;0.46;86.89
16664;BME280;8445;51.270;9.434;2022-11-20T11:26:58;98955.53;;;0.79;87.59
16664;BME280;8445;51.270;9.434;2022-11-20T11:29:24;98949.59;;;0.96;87.87
16664;BME280;8445;51.270;9.434;2022-11-20T11:32:13;98950.28;;;1.20;86.15
16664;BME280;8445;51.270;9.434;2022-11-20T11:34:39;98944.78;;;1.26;85.08
16664;BME280;8445;51.270;9.434;2022-11-20T11:37:13;98941.41;;;1.24;83.01
16664;BME280;8445;51.270;9.434;2022-11-20T11:39:42;98938.03;;;1.22;83.41
16664;BME280;8445;51.270;9.434;2022-11-20T11:42:12;98940.94;;;1.16;82.36
16664;BME280;8445;51.270;9.434;2022-11-20T11:44:44;98943.88;;;1.27;84.34
16664;BME280;8445;51.270;9.434;2022-11-20T11:47:45;98941.00;;;1.33;84.07
16664;BME280;8445;51.270;9.434;2022-11-20T11:58:51;98923.09;;;1.07;84.73
16664;BME280;8445;51.270;9.434;2022-11-20T12:01:28;98920.94;;;0.96;85.24
16664;BME280;8445;51.270;9.434;2022-11-20T12:06:44;98913.09;;;0.97;85.12
16664;BME280;8445;51.270;9.434;2022-11-20T12:09:11;98925.06;;;1.01;86.24
16664;BME280;8445;51.270;9.434;2022-11-20T12:11:54;98924.19;;;1.01;84.87
16664;BME280;8445;51.270;9.434;2022-11-20T12:14:43;98922.06;;;0.90;84.41
16664;BME280;8445;51.270;9.434;2022-11-20T12:17:13;98915.66;;;0.57;83.47
16664;BME280;8445;51.270;9.434;2022-11-20T12:19:39;98912.44;;;0.30;82.79
16664;BME280;8445;51.270;9.434;2022-11-20T12:24:44;98906.56;;;-0.18;82.50
16664;BME280;8445;51.270;9.434;2022-11-20T12:30:11;98902.81;;;-0.55;82.87
16664;BME280;8445;51.270;9.434;2022-11-20T12:36:02;98917.00;;;-0.88;82.91
16664;BME280;8445;51.270;9.434;2022-11-20T12:44:57;98898.69;;;-1.09;83.25
16664;BME280;8445;51.270;9.434;2022-11-20T12:47:55;98901.44;;;-1.13;83.28
16664;BME280;8445;51.270;9.434;2022-11-20T12:56:47;98903.66;;;-1.26;84.28
16664;BME280;8445;51.270;9.434;2022-11-20T13:02:25;98887.84;;;-1.20;84.37
16664;BME280;8445;51.270;9.434;2022-11-20T13:05:17;98896.31;;;-1.15;84.11
16664;BME280;8445;51.270;9.434;2022-11-20T13:07:44;98889.38;;;-1.14;83.93
16664;BME280;8445;51.270;9.434;2022-11-20T13:13:16;98886.94;;;-0.95;84.09
16664;BME280;8445;51.270;9.434;2022-11-20T13:16:08;98878.81;;;-0.86;84.34
16664;BME280;8445;51.270;9.434;2022-11-20T13:18:39;98883.00;;;-0.82;83.31
16664;BME280;8445;51.270;9.434;2022-11-20T13:21:19;98874.19;;;-0.78;83.14
16664;BME280;8445;51.270;9.434;2022-11-20T13:23:45;98878.38;;;-0.73;82.94
16664;BME280;8445;51.270;9.434;2022-11-20T13:26:22;98870.25;;;-0.64;84.38
16664;BME280;8445;51.270;9.434;2022-11-20T13:29:01;98877.19;;;-0.42;84.00
16664;BME280;8445;51.270;9.434;2022-11-20T13:31:32;98869.81;;;-0.31;83.59
16664;BME280;8445;51.270;9.434;2022-11-20T13:34:00;98863.78;;;-0.09;83.90
16664;BME280;8445;51.270;9.434;2022-11-20T13:36:29;98863.00;;;0.09;83.83
16664;BME280;8445;51.270;9.434;2022-11-20T13:38:56;98862.16;;;0.29;84.26
16664;BME280;8445;51.270;9.434;2022-11-20T13:41:28;98856.19;;;0.48;83.66
16664;BME280;8445;51.270;9.434;2022-11-20T13:44:23;98855.56;;;0.62;83.74
16664;BME280;8445;51.270;9.434;2022-11-20T13:46:50;98856.59;;;0.79;84.00
16664;BME280;8445;51.270;9.434;2022-11-20T13:51:54;98846.97;;;0.81;81.41
16664;BME280;8445;51.270;9.434;2022-11-20T13:55:03;98838.91;;;0.66;80.69
16664;BME280;8445;51.270;9.434;2022-11-20T14:01:00;98834.53;;;0.27;80.52
16664;BME280;8445;51.270;9.434;2022-11-20T14:03:33;98834.22;;;0.14;80.63
16664;BME280;8445;51.270;9.434;2022-11-20T14:06:03;98830.28;;;0.04;80.37
16664;BME280;8445;51.270;9.434;2022-11-20T14:11:16;98825.69;;;-0.10;81.06
16664;BME280;8445;51.270;9.434;2022-11-20T14:14:16;98826.63;;;-0.13;80.76
16664;BME280;8445;51.270;9.434;2022-11-20T14:16:42;98818.53;;;-0.27;80.66
16664;BME280;8445;51.270;9.434;2022-11-20T14:21:51;98817.63;;;-0.47;80.62
16664;BME280;8445;51.270;9.434;2022-11-20T14:24:23;98817.78;;;-0.52;80.64
16664;BME280;8445;51.270;9.434;2022-11-20T14:26:50;98817.00;;;-0.54;81.16
16664;BME280;8445;51.270;9.434;2022-11-20T14:29:18;98802.25;;;-0.53;81.13
16664;BME280;8445;51.270;9.434;2022-11-20T14:31:46;98799.72;;;-0.55;81.14
16664;BME280;8445;51.270;9.434;2022-11-20T14:34:20;98795.38;;;-0.54;81.55
16664;BME280;8445;51.270;9.434;2022-11-20T14:36:47;98796.09;;;-0.51;81.54
16664;BME280;8445;51.270;9.434;2022-11-20T14:39:33;98788.94;;;-0.46;81.88
16664;BME280;8445;51.270;9.434;2022-11-20T14:41:59;98787.22;;;-0.45;81.95
16664;BME280;8445;51.270;9.434;2022-11-20T14:44:29;98784.50;;;-0.42;81.76
16664;BME280;8445;51.270;9.434;2022-11-20T14:46:56;98780.78;;;-0.36;81.75